sensor_id;sensor_type;location;lat;lon;timestamp;P1;durP1;ratioP1;P2;durP2;ratioP2
58974;SDS011;44751;52.236;5.178;2023-05-10T00:01:24;45.38;;;27.17;;
58974;SDS011;44751;52.236;5.178;2023-05-10T00:03:57;42.72;;;26.05;;
58974;SDS011;44751;52.236;5.178;2023-05-10T00:06:23;42.00;;;26.40;;
58974;SDS011;44751;52.236;5.178;2023-05-10T00:08:50;41.13;;;25.95;;
58974;SDS011;44751;52.236;5.178;2023-05-10T00:11:16;42.08;;;26.98;;
58974;SDS011;44751;52.236;5.178;2023-05-10T00:13:43;49.10;;;27.77;;
58974;SDS011;44751;52.236;5.178;2023-05-10T00:16:09;43.92;;;27.17;;
58974;SDS011;44751;52.236;5.178;2023-05-10T00:18:37;44.60;;;27.88;;
58974;SDS011;44751;52.236;5.178;2023-05-10T00:21:04;48.22;;;27.52;;
58974;SDS011;44751;52.236;5.178;2023-05-10T00:23:31;45.20;;;27.52;;
58974;SDS011;44751;52.236;5.178;2023-05-10T00:25:57;49.10;;;27.50;;
58974;SDS011;44751;52.236;5.178;2023-05-10T00:28:24;48.75;;;28.15;;
58974;SDS011;44751;52.236;5.178;2023-05-10T00:30:52;44.70;;;27.27;;
58974;SDS011;44751;52.236;5.178;2023-05-10T00:33:18;45.88;;;26.40;;
58974;SDS011;44751;52.236;5.178;2023-05-10T00:35:45;42.53;;;25.17;;
58974;SDS011;44751;52.236;5.178;2023-05-10T00:38:11;49.22;;;28.15;;
58974;SDS011;44751;52.236;5.178;2023-05-10T00:40:38;38.95;;;25.75;;
58974;SDS011;44751;52.236;5.178;2023-05-10T00:43:04;45.65;;;26.55;;
58974;SDS011;44751;52.236;5.178;2023-05-10T00:45:32;48.55;;;26.85;;
58974;SDS011;44751;52.236;5.178;2023-05-10T00:47:59;46.45;;;27.70;;
58974;SDS011;44751;52.236;5.178;2023-05-10T00:50:27;45.53;;;26.10;;
58974;SDS011;44751;52.236;5.178;2023-05-10T00:52:54;48.65;;;27.80;;
58974;SDS011;44751;52.236;5.178;2023-05-10T00:55:21;46.28;;;29.17;;
58974;SDS011;44751;52.236;5.178;2023-05-10T00:57:50;48.35;;;28.50;;
58974;SDS011;44751;52.236;5.178;2023-05-10T01:00:17;47.63;;;28.85;;
58974;SDS011;44751;52.236;5.178;2023-05-10T01:02:44;50.70;;;28.83;;
58974;SDS011;44751;52.236;5.178;2023-05-10T01:05:11;47.83;;;29.67;;
58974;SDS011;44751;52.236;5.178;2023-05-10T01:07:38;44.95;;;28.20;;
58974;SDS011;44751;52.236;5.178;2023-05-10T01:10:07;48.92;;;29.45;;
58974;SDS011;44751;52.236;5.178;2023-05-10T01:12:35;48.88;;;30.27;;
58974;SDS011;44751;52.236;5.178;2023-05-10T01:15:06;44.67;;;28.50;;
58974;SDS011;44751;52.236;5.178;2023-05-10T01:17:37;47.70;;;29.83;;
58974;SDS011;44751;52.236;5.178;2023-05-10T01:20:09;48.80;;;29.02;;
58974;SDS011;44751;52.236;5.178;2023-05-10T01:31:16;47.72;;;29.63;;
58974;SDS011;44751;52.236;5.178;2023-05-10T01:33:52;50.10;;;30.63;;
58974;SDS011;44751;52.236;5.178;2023-05-10T01:39:01;50.60;;;31.15;;
58974;SDS011;44751;52.236;5.178;2023-05-10T01:41:39;51.45;;;31.67;;
58974;SDS011;44751;52.236;5.178;2023-05-10T01:47:10;46.00;;;30.00;;
58974;SDS011;44751;52.236;5.178;2023-05-10T01:49:43;47.42;;;30.58;;
58974;SDS011;44751;52.236;5.178;2023-05-10T01:52:14;49.47;;;31.95;;
58974;SDS011;44751;52.236;5.178;2023-05-10T01:54:50;53.15;;;32.58;;
58974;SDS011;44751;52.236;5.178;2023-05-10T01:57:22;48.40;;;31.25;;
58974;SDS011;44751;52.236;5.178;2023-05-10T02:00:02;52.63;;;32.78;;
58974;SDS011;44751;52.236;5.178;2023-05-10T02:02:30;50.25;;;33.03;;
58974;SDS011;44751;52.236;5.178;2023-05-10T02:05:02;54.95;;;32.53;;
58974;SDS011;44751;52.236;5.178;2023-05-10T02:07:32;53.90;;;33.33;;
58974;SDS011;44751;52.236;5.178;2023-05-10T02:10:04;48.85;;;31.75;;
58974;SDS011;44751;52.236;5.178;2023-05-10T02:12:32;54.55;;;33.15;;
58974;SDS011;44751;52.236;5.178;2023-05-10T02:15:02;53.47;;;32.35;;
58974;SDS011;44751;52.236;5.178;2023-05-10T02:17:35;51.13;;;32.58;;
58974;SDS011;44751;52.236;5.178;2023-05-10T02:20:04;55.33;;;34.83;;
58974;SDS011;44751;52.236;5.178;2023-05-10T02:22:34;54.90;;;32.85;;
58974;SDS011;44751;52.236;5.178;2023-05-10T02:25:03;55.58;;;33.78;;
58974;SDS011;44751;52.236;5.178;2023-05-10T02:27:32;59.58;;;34.35;;
58974;SDS011;44751;52.236;5.178;2023-05-10T02:30:00;52.03;;;32.50;;
58974;SDS011;44751;52.236;5.178;2023-05-10T02:32:27;58.70;;;34.47;;
58974;SDS011;44751;52.236;5.178;2023-05-10T02:34:55;49.50;;;31.45;;
58974;SDS011;44751;52.236;5.178;2023-05-10T02:37:27;55.83;;;33.47;;
58974;SDS011;44751;52.236;5.178;2023-05-10T02:39:54;54.72;;;33.55;;
58974;SDS011;44751;52.236;5.178;2023-05-10T02:42:23;49.50;;;32.47;;
58974;SDS011;44751;52.236;5.178;2023-05-10T02:44:53;52.63;;;32.28;;
58974;SDS011;44751;52.236;5.178;2023-05-10T02:47:22;59.90;;;34.70;;
58974;SDS011;44751;52.236;5.178;2023-05-10T02:49:49;59.90;;;35.25;;
58974;SDS011;44751;52.236;5.178;2023-05-10T02:52:23;57.38;;;34.95;;
58974;SDS011;44751;52.236;5.178;2023-05-10T02:54:54;57.25;;;34.85;;
58974;SDS011;44751;52.236;5.178;2023-05-10T02:57:24;58.53;;;35.25;;
58974;SDS011;44751;52.236;5.178;2023-05-10T02:59:54;57.72;;;34.60;;
58974;SDS011;44751;52.236;5.178;2023-05-10T03:02:20;55.08;;;32.38;;
58974;SDS011;44751;52.236;5.178;2023-05-10T03:04:47;61.22;;;34.42;;
58974;SDS011;44751;52.236;5.178;2023-05-10T03:07:13;67.47;;;37.28;;
58974;SDS011;44751;52.236;5.178;2023-05-10T03:09:41;63.85;;;36.90;;
58974;SDS011;44751;52.236;5.178;2023-05-10T03:15:03;61.47;;;35.92;;
58974;SDS011;44751;52.236;5.178;2023-05-10T03:17:55;70.13;;;36.83;;
58974;SDS011;44751;52.236;5.178;2023-05-10T03:20:38;72.03;;;37.42;;
58974;SDS011;44751;52.236;5.178;2023-05-10T03:25:40;70.93;;;36.97;;
58974;SDS011;44751;52.236;5.178;2023-05-10T03:28:08;68.40;;;34.90;;
58974;SDS011;44751;52.236;5.178;2023-05-10T03:30:35;69.20;;;35.47;;
58974;SDS011;44751;52.236;5.178;2023-05-10T03:33:05;63.78;;;34.38;;
58974;SDS011;44751;52.236;5.178;2023-05-10T03:35:35;73.05;;;33.70;;
58974;SDS011;44751;52.236;5.178;2023-05-10T03:38:02;86.30;;;37.40;;
58974;SDS011;44751;52.236;5.178;2023-05-10T03:40:28;72.88;;;34.28;;
58974;SDS011;44751;52.236;5.178;2023-05-10T03:42:56;66.72;;;31.77;;
58974;SDS011;44751;52.236;5.178;2023-05-10T03:45:23;69.22;;;31.33;;
58974;SDS011;44751;52.236;5.178;2023-05-10T03:47:59;71.43;;;31.23;;
58974;SDS011;44751;52.236;5.178;2023-05-10T03:50:25;61.97;;;29.17;;
58974;SDS011;44751;52.236;5.178;2023-05-10T03:52:52;81.85;;;33.47;;
58974;SDS011;44751;52.236;5.178;2023-05-10T03:55:22;75.68;;;31.05;;
58974;SDS011;44751;52.236;5.178;2023-05-10T03:57:48;80.65;;;32.45;;
58974;SDS011;44751;52.236;5.178;2023-05-10T04:00:15;71.60;;;30.00;;
58974;SDS011;44751;52.236;5.178;2023-05-10T04:02:42;59.88;;;29.02;;
58974;SDS011;44751;52.236;5.178;2023-05-10T04:05:08;67.93;;;29.00;;
58974;SDS011;44751;52.236;5.178;2023-05-10T04:07:35;64.07;;;28.60;;
58974;SDS011;44751;52.236;5.178;2023-05-10T04:10:01;69.00;;;27.88;;
58974;SDS011;44751;52.236;5.178;2023-05-10T04:12:28;77.35;;;30.95;;
58974;SDS011;44751;52.236;5.178;2023-05-10T04:14:54;79.88;;;31.10;;
58974;SDS011;44751;52.236;5.178;2023-05-10T04:17:21;75.97;;;31.05;;
58974;SDS011;44751;52.236;5.178;2023-05-10T04:19:47;69.65;;;30.80;;
58974;SDS011;44751;52.236;5.178;2023-05-10T04:22:14;80.30;;;31.27;;
58974;SDS011;44751;52.236;5.178;2023-05-10T04:24:40;69.80;;;31.73;;
58974;SDS011;44751;52.236;5.178;2023-05-10T04:27:07;83.45;;;32.40;;
58974;SDS011;44751;52.236;5.178;2023-05-10T04:29:33;78.20;;;31.80;;
58974;SDS011;44751;52.236;5.178;2023-05-10T04:32:00;63.15;;;29.05;;
58974;SDS011;44751;52.236;5.178;2023-05-10T04:34:26;72.68;;;29.88;;
58974;SDS011;44751;52.236;5.178;2023-05-10T04:36:53;66.75;;;29.63;;
58974;SDS011;44751;52.236;5.178;2023-05-10T04:39:22;68.95;;;30.08;;
58974;SDS011;44751;52.236;5.178;2023-05-10T04:41:49;68.00;;;31.42;;
58974;SDS011;44751;52.236;5.178;2023-05-10T04:44:15;68.25;;;30.33;;
58974;SDS011;44751;52.236;5.178;2023-05-10T04:46:41;64.88;;;29.77;;
58974;SDS011;44751;52.236;5.178;2023-05-10T04:49:08;73.63;;;30.55;;
58974;SDS011;44751;52.236;5.178;2023-05-10T04:51:45;68.10;;;32.50;;
58974;SDS011;44751;52.236;5.178;2023-05-10T04:54:11;64.68;;;31.00;;
58974;SDS011;44751;52.236;5.178;2023-05-10T04:56:38;64.20;;;31.60;;
58974;SDS011;44751;52.236;5.178;2023-05-10T04:59:04;55.88;;;29.48;;
58974;SDS011;44751;52.236;5.178;2023-05-10T05:01:30;52.80;;;29.02;;
58974;SDS011;44751;52.236;5.178;2023-05-10T05:03:57;47.42;;;27.20;;
58974;SDS011;44751;52.236;5.178;2023-05-10T05:06:24;55.22;;;28.48;;
58974;SDS011;44751;52.236;5.178;2023-05-10T05:08:52;53.05;;;28.85;;
58974;SDS011;44751;52.236;5.178;2023-05-10T05:11:18;56.42;;;30.30;;
58974;SDS011;44751;52.236;5.178;2023-05-10T05:13:45;59.45;;;30.52;;
58974;SDS011;44751;52.236;5.178;2023-05-10T05:16:24;46.65;;;23.55;;
58974;SDS011;44751;52.236;5.178;2023-05-10T05:18:51;53.17;;;24.48;;
58974;SDS011;44751;52.236;5.178;2023-05-10T05:21:18;45.45;;;22.10;;
58974;SDS011;44751;52.236;5.178;2023-05-10T05:23:46;41.80;;;20.35;;
58974;SDS011;44751;52.236;5.178;2023-05-10T05:26:12;46.50;;;21.15;;
58974;SDS011;44751;52.236;5.178;2023-05-10T05:28:43;35.85;;;18.63;;
58974;SDS011;44751;52.236;5.178;2023-05-10T05:31:09;34.22;;;18.70;;
58974;SDS011;44751;52.236;5.178;2023-05-10T05:33:36;29.52;;;17.17;;
58974;SDS011;44751;52.236;5.178;2023-05-10T05:36:05;30.92;;;17.92;;
58974;SDS011;44751;52.236;5.178;2023-05-10T05:38:36;33.42;;;18.27;;
58974;SDS011;44751;52.236;5.178;2023-05-10T05:41:02;31.75;;;18.58;;
58974;SDS011;44751;52.236;5.178;2023-05-10T05:43:29;32.08;;;18.25;;
58974;SDS011;44751;52.236;5.178;2023-05-10T05:45:55;29.25;;;17.23;;
58974;SDS011;44751;52.236;5.178;2023-05-10T05:48:22;29.10;;;17.77;;
58974;SDS011;44751;52.236;5.178;2023-05-10T05:50:52;34.13;;;18.00;;
58974;SDS011;44751;52.236;5.178;2023-05-10T05:53:20;31.60;;;18.15;;
58974;SDS011;44751;52.236;5.178;2023-05-10T05:55:53;33.75;;;17.77;;
58974;SDS011;44751;52.236;5.178;2023-05-10T05:58:21;32.05;;;17.67;;
58974;SDS011;44751;52.236;5.178;2023-05-10T06:00:48;25.75;;;16.15;;
58974;SDS011;44751;52.236;5.178;2023-05-10T06:03:16;30.08;;;16.38;;
58974;SDS011;44751;52.236;5.178;2023-05-10T06:05:42;30.73;;;16.20;;
58974;SDS011;44751;52.236;5.178;2023-05-10T06:08:09;29.48;;;15.60;;
58974;SDS011;44751;52.236;5.178;2023-05-10T06:10:38;33.47;;;17.95;;
58974;SDS011;44751;52.236;5.178;2023-05-10T06:13:04;31.67;;;17.38;;
58974;SDS011;44751;52.236;5.178;2023-05-10T06:15:33;35.00;;;19.10;;
58974;SDS011;44751;52.236;5.178;2023-05-10T06:18:00;37.42;;;19.55;;
58974;SDS011;44751;52.236;5.178;2023-05-10T06:20:27;38.65;;;19.17;;
58974;SDS011;44751;52.236;5.178;2023-05-10T06:22:53;36.65;;;18.90;;
58974;SDS011;44751;52.236;5.178;2023-05-10T06:25:25;40.53;;;19.77;;
58974;SDS011;44751;52.236;5.178;2023-05-10T06:27:52;37.47;;;18.98;;
58974;SDS011;44751;52.236;5.178;2023-05-10T06:30:22;34.90;;;18.10;;
58974;SDS011;44751;52.236;5.178;2023-05-10T06:32:52;36.25;;;18.17;;
58974;SDS011;44751;52.236;5.178;2023-05-10T06:35:18;37.38;;;18.88;;
58974;SDS011;44751;52.236;5.178;2023-05-10T06:37:45;38.53;;;18.65;;
58974;SDS011;44751;52.236;5.178;2023-05-10T06:40:12;34.75;;;18.88;;
58974;SDS011;44751;52.236;5.178;2023-05-10T06:42:39;34.22;;;17.52;;
58974;SDS011;44751;52.236;5.178;2023-05-10T06:45:06;31.75;;;16.90;;
58974;SDS011;44751;52.236;5.178;2023-05-10T06:47:33;36.22;;;18.20;;
58974;SDS011;44751;52.236;5.178;2023-05-10T06:50:02;30.10;;;17.20;;
58974;SDS011;44751;52.236;5.178;2023-05-10T06:52:29;29.38;;;16.55;;
58974;SDS011;44751;52.236;5.178;2023-05-10T06:54:56;31.45;;;17.67;;
58974;SDS011;44751;52.236;5.178;2023-05-10T06:57:22;31.48;;;16.60;;
58974;SDS011;44751;52.236;5.178;2023-05-10T06:59:49;33.17;;;16.80;;
58974;SDS011;44751;52.236;5.178;2023-05-10T07:02:22;29.45;;;16.17;;
58974;SDS011;44751;52.236;5.178;2023-05-10T07:04:48;28.05;;;16.15;;
58974;SDS011;44751;52.236;5.178;2023-05-10T07:07:16;27.83;;;16.40;;
58974;SDS011;44751;52.236;5.178;2023-05-10T07:09:43;28.02;;;16.23;;
58974;SDS011;44751;52.236;5.178;2023-05-10T07:12:09;26.65;;;15.80;;
58974;SDS011;44751;52.236;5.178;2023-05-10T07:14:38;25.27;;;14.82;;
58974;SDS011;44751;52.236;5.178;2023-05-10T07:17:05;25.00;;;14.50;;
58974;SDS011;44751;52.236;5.178;2023-05-10T07:19:31;24.42;;;13.98;;
58974;SDS011;44751;52.236;5.178;2023-05-10T07:21:58;22.67;;;13.52;;
58974;SDS011;44751;52.236;5.178;2023-05-10T07:24:25;30.90;;;16.30;;
58974;SDS011;44751;52.236;5.178;2023-05-10T07:26:56;28.10;;;14.60;;
58974;SDS011;44751;52.236;5.178;2023-05-10T07:29:22;25.90;;;15.15;;
58974;SDS011;44751;52.236;5.178;2023-05-10T07:31:49;21.02;;;13.95;;
58974;SDS011;44751;52.236;5.178;2023-05-10T07:34:15;27.55;;;14.98;;
58974;SDS011;44751;52.236;5.178;2023-05-10T07:36:42;24.55;;;14.90;;
58974;SDS011;44751;52.236;5.178;2023-05-10T07:39:08;23.83;;;14.00;;
58974;SDS011;44751;52.236;5.178;2023-05-10T07:41:37;25.83;;;15.88;;
58974;SDS011;44751;52.236;5.178;2023-05-10T07:44:04;23.52;;;14.75;;
58974;SDS011;44751;52.236;5.178;2023-05-10T07:46:31;25.00;;;14.85;;
58974;SDS011;44751;52.236;5.178;2023-05-10T07:48:58;25.40;;;15.15;;
58974;SDS011;44751;52.236;5.178;2023-05-10T07:51:24;20.52;;;13.77;;
58974;SDS011;44751;52.236;5.178;2023-05-10T07:53:51;26.65;;;14.57;;
58974;SDS011;44751;52.236;5.178;2023-05-10T07:56:35;31.13;;;15.90;;
58974;SDS011;44751;52.236;5.178;2023-05-10T07:59:02;25.63;;;15.00;;
58974;SDS011;44751;52.236;5.178;2023-05-10T08:01:32;25.45;;;16.30;;
58974;SDS011;44751;52.236;5.178;2023-05-10T08:04:00;23.63;;;14.90;;
58974;SDS011;44751;52.236;5.178;2023-05-10T08:06:26;23.25;;;15.60;;
58974;SDS011;44751;52.236;5.178;2023-05-10T08:08:54;21.65;;;15.35;;
58974;SDS011;44751;52.236;5.178;2023-05-10T08:11:24;23.13;;;14.13;;
58974;SDS011;44751;52.236;5.178;2023-05-10T08:13:52;18.63;;;12.45;;
58974;SDS011;44751;52.236;5.178;2023-05-10T08:16:19;22.58;;;14.23;;
58974;SDS011;44751;52.236;5.178;2023-05-10T08:18:46;22.02;;;13.85;;
58974;SDS011;44751;52.236;5.178;2023-05-10T08:21:14;18.35;;;12.98;;
58974;SDS011;44751;52.236;5.178;2023-05-10T08:23:43;19.85;;;13.20;;
58974;SDS011;44751;52.236;5.178;2023-05-10T08:26:10;20.35;;;12.88;;
58974;SDS011;44751;52.236;5.178;2023-05-10T08:28:36;17.60;;;12.00;;
58974;SDS011;44751;52.236;5.178;2023-05-10T08:31:04;18.05;;;12.27;;
58974;SDS011;44751;52.236;5.178;2023-05-10T08:33:31;19.73;;;11.50;;
58974;SDS011;44751;52.236;5.178;2023-05-10T08:36:07;16.80;;;11.13;;
58974;SDS011;44751;52.236;5.178;2023-05-10T08:38:34;16.38;;;10.90;;
58974;SDS011;44751;52.236;5.178;2023-05-10T08:41:01;16.65;;;10.57;;
58974;SDS011;44751;52.236;5.178;2023-05-10T08:43:29;14.57;;;10.32;;
58974;SDS011;44751;52.236;5.178;2023-05-10T08:45:58;15.38;;;10.40;;
58974;SDS011;44751;52.236;5.178;2023-05-10T08:48:29;12.82;;;9.35;;
58974;SDS011;44751;52.236;5.178;2023-05-10T08:50:57;13.93;;;9.77;;
58974;SDS011;44751;52.236;5.178;2023-05-10T08:53:25;12.85;;;9.10;;
58974;SDS011;44751;52.236;5.178;2023-05-10T08:55:55;12.98;;;8.80;;
58974;SDS011;44751;52.236;5.178;2023-05-10T08:58:23;13.43;;;9.57;;
58974;SDS011;44751;52.236;5.178;2023-05-10T09:00:51;13.38;;;9.27;;
58974;SDS011;44751;52.236;5.178;2023-05-10T09:03:18;16.42;;;10.43;;
58974;SDS011;44751;52.236;5.178;2023-05-10T09:05:45;14.73;;;9.45;;
58974;SDS011;44751;52.236;5.178;2023-05-10T09:08:11;14.10;;;10.13;;
58974;SDS011;44751;52.236;5.178;2023-05-10T09:10:41;13.73;;;9.40;;
58974;SDS011;44751;52.236;5.178;2023-05-10T09:13:10;16.58;;;10.27;;
58974;SDS011;44751;52.236;5.178;2023-05-10T09:15:37;15.60;;;11.13;;
58974;SDS011;44751;52.236;5.178;2023-05-10T09:18:04;14.00;;;10.15;;
58974;SDS011;44751;52.236;5.178;2023-05-10T09:20:31;13.98;;;10.23;;
58974;SDS011;44751;52.236;5.178;2023-05-10T09:22:57;14.88;;;10.57;;
58974;SDS011;44751;52.236;5.178;2023-05-10T09:25:25;14.43;;;10.88;;
58974;SDS011;44751;52.236;5.178;2023-05-10T09:27:52;16.48;;;11.10;;
58974;SDS011;44751;52.236;5.178;2023-05-10T09:30:25;15.20;;;10.23;;
58974;SDS011;44751;52.236;5.178;2023-05-10T09:32:57;15.82;;;10.70;;
58974;SDS011;44751;52.236;5.178;2023-05-10T09:35:25;15.65;;;10.05;;
58974;SDS011;44751;52.236;5.178;2023-05-10T09:37:53;12.52;;;8.25;;
58974;SDS011;44751;52.236;5.178;2023-05-10T09:40:22;12.90;;;8.55;;
58974;SDS011;44751;52.236;5.178;2023-05-10T09:42:56;11.27;;;7.88;;
58974;SDS011;44751;52.236;5.178;2023-05-10T09:45:25;10.90;;;8.05;;
58974;SDS011;44751;52.236;5.178;2023-05-10T09:47:53;9.00;;;7.13;;
58974;SDS011;44751;52.236;5.178;2023-05-10T09:50:20;13.60;;;7.95;;
58974;SDS011;44751;52.236;5.178;2023-05-10T09:52:49;12.35;;;7.10;;
58974;SDS011;44751;52.236;5.178;2023-05-10T09:55:19;11.70;;;7.63;;
58974;SDS011;44751;52.236;5.178;2023-05-10T09:57:48;8.40;;;6.75;;
58974;SDS011;44751;52.236;5.178;2023-05-10T10:00:34;9.32;;;6.43;;
58974;SDS011;44751;52.236;5.178;2023-05-10T10:03:02;10.85;;;6.35;;
58974;SDS011;44751;52.236;5.178;2023-05-10T10:07:57;7.45;;;6.20;;
58974;SDS011;44751;52.236;5.178;2023-05-10T10:10:24;9.35;;;6.18;;
58974;SDS011;44751;52.236;5.178;2023-05-10T10:12:54;6.60;;;5.55;;
58974;SDS011;44751;52.236;5.178;2023-05-10T10:15:21;7.90;;;5.40;;
58974;SDS011;44751;52.236;5.178;2023-05-10T10:17:49;9.48;;;6.00;;
58974;SDS011;44751;52.236;5.178;2023-05-10T10:20:20;9.45;;;5.57;;
58974;SDS011;44751;52.236;5.178;2023-05-10T10:22:49;8.48;;;5.78;;
58974;SDS011;44751;52.236;5.178;2023-05-10T10:25:16;6.22;;;4.95;;
58974;SDS011;44751;52.236;5.178;2023-05-10T10:30:31;9.20;;;5.00;;
58974;SDS011;44751;52.236;5.178;2023-05-10T10:36:03;5.93;;;4.70;;
58974;SDS011;44751;52.236;5.178;2023-05-10T10:39:07;7.13;;;4.68;;
58974;SDS011;44751;52.236;5.178;2023-05-10T10:41:35;8.25;;;4.38;;
58974;SDS011;44751;52.236;5.178;2023-05-10T10:46:58;5.97;;;3.92;;
58974;SDS011;44751;52.236;5.178;2023-05-10T10:49:31;4.35;;;3.92;;
58974;SDS011;44751;52.236;5.178;2023-05-10T10:52:21;7.50;;;4.63;;
58974;SDS011;44751;52.236;5.178;2023-05-10T11:00:19;5.32;;;3.50;;
58974;SDS011;44751;52.236;5.178;2023-05-10T11:02:48;6.15;;;4.03;;
58974;SDS011;44751;52.236;5.178;2023-05-10T11:07:55;5.28;;;3.72;;
58974;SDS011;44751;52.236;5.178;2023-05-10T11:10:24;6.90;;;4.45;;
58974;SDS011;44751;52.236;5.178;2023-05-10T11:13:05;7.88;;;4.35;;
58974;SDS011;44751;52.236;5.178;2023-05-10T11:15:39;6.07;;;4.53;;
58974;SDS011;44751;52.236;5.178;2023-05-10T11:18:19;8.77;;;4.35;;
58974;SDS011;44751;52.236;5.178;2023-05-10T11:23:23;7.10;;;4.60;;
58974;SDS011;44751;52.236;5.178;2023-05-10T11:25:58;11.45;;;5.35;;
58974;SDS011;44751;52.236;5.178;2023-05-10T11:28:26;6.63;;;4.63;;
58974;SDS011;44751;52.236;5.178;2023-05-10T11:30:53;6.57;;;4.35;;
58974;SDS011;44751;52.236;5.178;2023-05-10T11:33:20;8.25;;;4.38;;
58974;SDS011;44751;52.236;5.178;2023-05-10T11:35:47;7.07;;;4.25;;
58974;SDS011;44751;52.236;5.178;2023-05-10T11:38:13;6.80;;;4.65;;
58974;SDS011;44751;52.236;5.178;2023-05-10T11:40:40;5.50;;;3.88;;
58974;SDS011;44751;52.236;5.178;2023-05-10T11:43:08;7.43;;;4.00;;
58974;SDS011;44751;52.236;5.178;2023-05-10T11:45:36;5.47;;;3.47;;
58974;SDS011;44751;52.236;5.178;2023-05-10T11:48:03;7.28;;;3.53;;
58974;SDS011;44751;52.236;5.178;2023-05-10T11:50:30;4.30;;;3.08;;
58974;SDS011;44751;52.236;5.178;2023-05-10T11:53:01;5.38;;;3.30;;
58974;SDS011;44751;52.236;5.178;2023-05-10T11:55:27;5.90;;;3.92;;
58974;SDS011;44751;52.236;5.178;2023-05-10T11:57:55;6.25;;;3.75;;
58974;SDS011;44751;52.236;5.178;2023-05-10T12:00:44;9.45;;;4.32;;
58974;SDS011;44751;52.236;5.178;2023-05-10T12:03:11;6.03;;;3.83;;
58974;SDS011;44751;52.236;5.178;2023-05-10T12:05:38;5.15;;;3.88;;
58974;SDS011;44751;52.236;5.178;2023-05-10T12:08:13;7.10;;;3.75;;
58974;SDS011;44751;52.236;5.178;2023-05-10T12:10:40;5.85;;;4.13;;
58974;SDS011;44751;52.236;5.178;2023-05-10T12:13:11;6.65;;;3.95;;
58974;SDS011;44751;52.236;5.178;2023-05-10T12:15:40;6.35;;;4.25;;
58974;SDS011;44751;52.236;5.178;2023-05-10T12:18:13;6.72;;;4.47;;
58974;SDS011;44751;52.236;5.178;2023-05-10T12:20:40;8.63;;;4.22;;
58974;SDS011;44751;52.236;5.178;2023-05-10T12:23:08;5.75;;;4.22;;
58974;SDS011;44751;52.236;5.178;2023-05-10T12:25:36;7.20;;;4.25;;
58974;SDS011;44751;52.236;5.178;2023-05-10T12:28:06;6.15;;;4.50;;
58974;SDS011;44751;52.236;5.178;2023-05-10T12:30:36;6.47;;;4.47;;
58974;SDS011;44751;52.236;5.178;2023-05-10T12:33:08;6.72;;;4.38;;
58974;SDS011;44751;52.236;5.178;2023-05-10T12:35:51;5.88;;;3.88;;
58974;SDS011;44751;52.236;5.178;2023-05-10T12:38:26;6.22;;;4.10;;
58974;SDS011;44751;52.236;5.178;2023-05-10T12:41:04;5.88;;;3.95;;
58974;SDS011;44751;52.236;5.178;2023-05-10T12:43:35;7.28;;;4.80;;
58974;SDS011;44751;52.236;5.178;2023-05-10T12:46:12;9.68;;;5.10;;
58974;SDS011;44751;52.236;5.178;2023-05-10T12:48:42;8.45;;;5.63;;
58974;SDS011;44751;52.236;5.178;2023-05-10T12:51:10;7.10;;;5.10;;
58974;SDS011;44751;52.236;5.178;2023-05-10T12:53:40;7.07;;;4.60;;
58974;SDS011;44751;52.236;5.178;2023-05-10T12:56:07;7.25;;;4.13;;
58974;SDS011;44751;52.236;5.178;2023-05-10T12:58:37;5.88;;;4.25;;
58974;SDS011;44751;52.236;5.178;2023-05-10T13:01:04;8.13;;;4.47;;
58974;SDS011;44751;52.236;5.178;2023-05-10T13:03:31;9.32;;;6.30;;
58974;SDS011;44751;52.236;5.178;2023-05-10T13:05:57;8.77;;;6.80;;
58974;SDS011;44751;52.236;5.178;2023-05-10T13:08:24;11.13;;;6.65;;
58974;SDS011;44751;52.236;5.178;2023-05-10T13:10:50;12.10;;;6.63;;
58974;SDS011;44751;52.236;5.178;2023-05-10T13:13:17;11.40;;;6.95;;
58974;SDS011;44751;52.236;5.178;2023-05-10T13:15:46;10.65;;;7.82;;
58974;SDS011;44751;52.236;5.178;2023-05-10T13:18:13;11.48;;;7.43;;
58974;SDS011;44751;52.236;5.178;2023-05-10T13:20:39;11.88;;;8.48;;
58974;SDS011;44751;52.236;5.178;2023-05-10T13:23:05;16.15;;;10.27;;
58974;SDS011;44751;52.236;5.178;2023-05-10T13:25:37;14.90;;;10.05;;
58974;SDS011;44751;52.236;5.178;2023-05-10T13:28:04;15.77;;;10.15;;
58974;SDS011;44751;52.236;5.178;2023-05-10T13:30:30;17.70;;;10.82;;
58974;SDS011;44751;52.236;5.178;2023-05-10T13:32:57;19.52;;;10.82;;
58974;SDS011;44751;52.236;5.178;2023-05-10T13:35:23;18.00;;;11.23;;
58974;SDS011;44751;52.236;5.178;2023-05-10T13:37:54;18.65;;;10.32;;
58974;SDS011;44751;52.236;5.178;2023-05-10T13:40:22;15.60;;;9.95;;
58974;SDS011;44751;52.236;5.178;2023-05-10T13:42:49;17.95;;;10.30;;
58974;SDS011;44751;52.236;5.178;2023-05-10T13:45:15;17.60;;;10.50;;
58974;SDS011;44751;52.236;5.178;2023-05-10T13:47:42;14.50;;;9.95;;
58974;SDS011;44751;52.236;5.178;2023-05-10T13:50:14;17.73;;;9.98;;
58974;SDS011;44751;52.236;5.178;2023-05-10T13:52:40;18.25;;;9.68;;
58974;SDS011;44751;52.236;5.178;2023-05-10T13:55:07;14.38;;;9.18;;
58974;SDS011;44751;52.236;5.178;2023-05-10T13:57:34;15.43;;;8.90;;
58974;SDS011;44751;52.236;5.178;2023-05-10T14:00:01;12.63;;;8.27;;
58974;SDS011;44751;52.236;5.178;2023-05-10T14:02:32;14.20;;;8.00;;
58974;SDS011;44751;52.236;5.178;2023-05-10T14:04:58;13.27;;;7.85;;
58974;SDS011;44751;52.236;5.178;2023-05-10T14:07:25;10.90;;;7.18;;
58974;SDS011;44751;52.236;5.178;2023-05-10T14:09:51;11.68;;;6.82;;
58974;SDS011;44751;52.236;5.178;2023-05-10T14:12:18;12.27;;;7.22;;
58974;SDS011;44751;52.236;5.178;2023-05-10T14:14:44;11.88;;;6.68;;
58974;SDS011;44751;52.236;5.178;2023-05-10T14:17:11;11.90;;;6.85;;
58974;SDS011;44751;52.236;5.178;2023-05-10T14:19:37;12.10;;;6.72;;
58974;SDS011;44751;52.236;5.178;2023-05-10T14:22:04;13.40;;;7.65;;
58974;SDS011;44751;52.236;5.178;2023-05-10T14:24:30;13.68;;;7.20;;
58974;SDS011;44751;52.236;5.178;2023-05-10T14:27:00;11.98;;;6.95;;
58974;SDS011;44751;52.236;5.178;2023-05-10T14:29:26;10.68;;;7.40;;
58974;SDS011;44751;52.236;5.178;2023-05-10T14:31:53;13.60;;;7.68;;
58974;SDS011;44751;52.236;5.178;2023-05-10T14:34:19;13.27;;;7.68;;
58974;SDS011;44751;52.236;5.178;2023-05-10T14:36:46;10.60;;;7.22;;
58974;SDS011;44751;52.236;5.178;2023-05-10T14:39:13;14.52;;;7.35;;
58974;SDS011;44751;52.236;5.178;2023-05-10T14:41:59;12.27;;;7.05;;
58974;SDS011;44751;52.236;5.178;2023-05-10T14:44:27;10.20;;;6.63;;
58974;SDS011;44751;52.236;5.178;2023-05-10T14:46:56;14.02;;;7.03;;
58974;SDS011;44751;52.236;5.178;2023-05-10T14:49:22;11.23;;;6.80;;
58974;SDS011;44751;52.236;5.178;2023-05-10T14:51:50;13.52;;;7.15;;
58974;SDS011;44751;52.236;5.178;2023-05-10T14:54:17;8.27;;;5.95;;
58974;SDS011;44751;52.236;5.178;2023-05-10T14:56:44;12.23;;;7.47;;
58974;SDS011;44751;52.236;5.178;2023-05-10T14:59:13;13.02;;;7.13;;
58974;SDS011;44751;52.236;5.178;2023-05-10T15:01:39;11.05;;;7.10;;
58974;SDS011;44751;52.236;5.178;2023-05-10T15:04:10;11.45;;;7.22;;
58974;SDS011;44751;52.236;5.178;2023-05-10T15:06:38;11.45;;;7.03;;
58974;SDS011;44751;52.236;5.178;2023-05-10T15:09:04;13.57;;;7.13;;
58974;SDS011;44751;52.236;5.178;2023-05-10T15:11:31;11.15;;;6.78;;
58974;SDS011;44751;52.236;5.178;2023-05-10T15:13:57;10.70;;;7.18;;
58974;SDS011;44751;52.236;5.178;2023-05-10T15:16:28;10.02;;;6.68;;
58974;SDS011;44751;52.236;5.178;2023-05-10T15:18:54;10.20;;;6.85;;